sensor_id;sensor_type;location;lat;lon;timestamp;pressure;altitude;pressure_sealevel;temperature
15360;BMP280;7779;49.596;11.070;2024-02-16T00:00:25;98251.00;;;11.10
15360;BMP280;7779;49.596;11.070;2024-02-16T00:02:51;98255.84;;;11.07
15360;BMP280;7779;49.596;11.070;2024-02-16T00:05:18;98248.25;;;11.06
15360;BMP280;7779;49.596;11.070;2024-02-16T00:07:44;98247.31;;;11.04
15360;BMP280;7779;49.596;11.070;2024-02-16T00:10:10;98236.34;;;11.02
15360;BMP280;7779;49.596;11.070;2024-02-16T00:12:37;98229.59;;;11.01
15360;BMP280;7779;49.596;11.070;2024-02-16T00:15:06;98229.53;;;10.99
15360;BMP280;7779;49.596;11.070;2024-02-16T00:17:32;98221.94;;;10.98
15360;BMP280;7779;49.596;11.070;2024-02-16T00:19:59;98225.22;;;10.97
15360;BMP280;7779;49.596;11.070;2024-02-16T00:22:25;98225.22;;;10.97
15360;BMP280;7779;49.596;11.070;2024-02-16T00:24:51;98231.16;;;10.99
15360;BMP280;7779;49.596;11.070;2024-02-16T00:27:17;98231.16;;;10.99
15360;BMP280;7779;49.596;11.070;2024-02-16T00:29:43;98226.31;;;11.02
15360;BMP280;7779;49.596;11.070;2024-02-16T00:32:09;98229.53;;;10.99
15360;BMP280;7779;49.596;11.070;2024-02-16T00:34:36;98231.50;;;11.05
15360;BMP280;7779;49.596;11.070;2024-02-16T00:37:03;98237.47;;;11.07
15360;BMP280;7779;49.596;11.070;2024-02-16T00:39:38;98241.66;;;11.08
15360;BMP280;7779;49.596;11.070;2024-02-16T00:42:06;98241.00;;;11.10
15360;BMP280;7779;49.596;11.070;2024-02-16T00:44:32;98238.53;;;11.12
15360;BMP280;7779;49.596;11.070;2024-02-16T00:46:58;98239.50;;;11.14
15360;BMP280;7779;49.596;11.070;2024-02-16T00:49:24;98235.44;;;11.16
15360;BMP280;7779;49.596;11.070;2024-02-16T00:51:49;98238.88;;;11.18
15360;BMP280;7779;49.596;11.070;2024-02-16T00:54:17;98232.28;;;11.20
15360;BMP280;7779;49.596;11.070;2024-02-16T00:56:43;98236.66;;;11.24
15360;BMP280;7779;49.596;11.070;2024-02-16T00:59:08;98236.84;;;11.27
15360;BMP280;7779;49.596;11.070;2024-02-16T01:01:35;98236.22;;;11.30
15360;BMP280;7779;49.596;11.070;2024-02-16T01:04:02;98230.34;;;11.30
15360;BMP280;7779;49.596;11.070;2024-02-16T01:06:28;98236.38;;;11.33
15360;BMP280;7779;49.596;11.070;2024-02-16T01:08:54;98239.81;;;11.35
15360;BMP280;7779;49.596;11.070;2024-02-16T01:11:20;98248.41;;;11.40
15360;BMP280;7779;49.596;11.070;2024-02-16T01:13:46;98255.38;;;11.44
15360;BMP280;7779;49.596;11.070;2024-02-16T01:16:12;98256.41;;;11.48
15360;BMP280;7779;49.596;11.070;2024-02-16T01:18:37;98249.81;;;11.50
15360;BMP280;7779;49.596;11.070;2024-02-16T01:21:04;98250.66;;;11.50
15360;BMP280;7779;49.596;11.070;2024-02-16T01:23:30;98244.06;;;11.52
15360;BMP280;7779;49.596;11.070;2024-02-16T01:25:55;98250.81;;;11.53
15360;BMP280;7779;49.596;11.070;2024-02-16T01:28:21;98249.25;;;11.55
15360;BMP280;7779;49.596;11.070;2024-02-16T01:30:49;98250.81;;;11.53
15360;BMP280;7779;49.596;11.070;2024-02-16T01:33:15;98251.59;;;11.52
15360;BMP280;7779;49.596;11.070;2024-02-16T01:35:41;98254.09;;;11.52
15360;BMP280;7779;49.596;11.070;2024-02-16T01:38:06;98248.16;;;11.50
15360;BMP280;7779;49.596;11.070;2024-02-16T01:40:32;98258.19;;;11.50
15360;BMP280;7779;49.596;11.070;2024-02-16T01:42:58;98253.09;;;11.49
15360;BMP280;7779;49.596;11.070;2024-02-16T01:45:24;98257.25;;;11.48
15360;BMP280;7779;49.596;11.070;2024-02-16T01:47:51;98255.50;;;11.47
15360;BMP280;7779;49.596;11.070;2024-02-16T01:50:18;98253.81;;;11.46
15360;BMP280;7779;49.596;11.070;2024-02-16T01:52:47;98252.91;;;11.46
15360;BMP280;7779;49.596;11.070;2024-02-16T01:55:13;98247.84;;;11.44
15360;BMP280;7779;49.596;11.070;2024-02-16T01:57:43;98244.34;;;11.42
15360;BMP280;7779;49.596;11.070;2024-02-16T02:00:09;98246.84;;;11.42
15360;BMP280;7779;49.596;11.070;2024-02-16T02:02:36;98255.16;;;11.41
15360;BMP280;7779;49.596;11.070;2024-02-16T02:05:03;98241.78;;;11.41
15360;BMP280;7779;49.596;11.070;2024-02-16T02:07:32;98242.47;;;11.38
15360;BMP280;7779;49.596;11.070;2024-02-16T02:09:58;98246.63;;;11.38
15360;BMP280;7779;49.596;11.070;2024-02-16T02:12:24;98241.53;;;11.36
15360;BMP280;7779;49.596;11.070;2024-02-16T02:14:50;98239.81;;;11.35
15360;BMP280;7779;49.596;11.070;2024-02-16T02:17:18;98235.56;;;11.34
15360;BMP280;7779;49.596;11.070;2024-02-16T02:19:46;98236.22;;;11.30
15360;BMP280;7779;49.596;11.070;2024-02-16T02:22:19;98226.19;;;11.30
15360;BMP280;7779;49.596;11.070;2024-02-16T02:24:46;98227.75;;;11.29
15360;BMP280;7779;49.596;11.070;2024-02-16T02:27:13;98222.47;;;11.24
15360;BMP280;7779;49.596;11.070;2024-02-16T02:29:40;98226.66;;;11.24
15360;BMP280;7779;49.596;11.070;2024-02-16T02:32:07;98224.94;;;11.23
15360;BMP280;7779;49.596;11.070;2024-02-16T02:34:33;98218.94;;;11.21
15360;BMP280;7779;49.596;11.070;2024-02-16T02:36:59;98217.16;;;11.18
15360;BMP280;7779;49.596;11.070;2024-02-16T02:39:25;98212.06;;;11.17
15360;BMP280;7779;49.596;11.070;2024-02-16T02:41:51;98213.63;;;11.15
15360;BMP280;7779;49.596;11.070;2024-02-16T02:44:18;98219.44;;;11.14
15360;BMP280;7779;49.596;11.070;2024-02-16T02:46:45;98215.97;;;11.12
15360;BMP280;7779;49.596;11.070;2024-02-16T02:49:10;98219.28;;;11.11
15360;BMP280;7779;49.596;11.070;2024-02-16T02:51:36;98216.78;;;11.11
15360;BMP280;7779;49.596;11.070;2024-02-16T02:54:02;98220.00;;;11.08
15360;BMP280;7779;49.596;11.070;2024-02-16T02:56:28;98209.00;;;11.06
15360;BMP280;7779;49.596;11.070;2024-02-16T02:58:53;98204.69;;;11.04
15360;BMP280;7779;49.596;11.070;2024-02-16T03:01:19;98208.94;;;11.05
15360;BMP280;7779;49.596;11.070;2024-02-16T03:03:46;98205.50;;;11.03
15360;BMP280;7779;49.596;11.070;2024-02-16T03:06:12;98201.25;;;11.02
15360;BMP280;7779;49.596;11.070;2024-02-16T03:08:39;98207.91;;;11.01
15360;BMP280;7779;49.596;11.070;2024-02-16T03:11:05;98211.28;;;11.02
15360;BMP280;7779;49.596;11.070;2024-02-16T03:13:32;98206.28;;;11.02
15360;BMP280;7779;49.596;11.070;2024-02-16T03:15:58;98207.84;;;11.00
15360;BMP280;7779;49.596;11.070;2024-02-16T03:18:24;98209.53;;;11.01
15360;BMP280;7779;49.596;11.070;2024-02-16T03:20:50;98217.06;;;11.01
15360;BMP280;7779;49.596;11.070;2024-02-16T03:23:16;98209.50;;;10.99
15360;BMP280;7779;49.596;11.070;2024-02-16T03:25:42;98210.34;;;11.00
15360;BMP280;7779;49.596;11.070;2024-02-16T03:28:14;98207.84;;;11.00
15360;BMP280;7779;49.596;11.070;2024-02-16T03:30:40;98201.88;;;10.98
15360;BMP280;7779;49.596;11.070;2024-02-16T03:33:06;98209.41;;;10.98
15360;BMP280;7779;49.596;11.070;2024-02-16T03:35:31;98216.06;;;10.97
15360;BMP280;7779;49.596;11.070;2024-02-16T03:37:57;98218.56;;;10.97
15360;BMP280;7779;49.596;11.070;2024-02-16T03:40:24;98209.41;;;10.98
15360;BMP280;7779;49.596;11.070;2024-02-16T03:42:51;98211.09;;;10.99
15360;BMP280;7779;49.596;11.070;2024-02-16T03:45:18;98213.69;;;11.00
15360;BMP280;7779;49.596;11.070;2024-02-16T03:47:44;98210.44;;;11.01
15360;BMP280;7779;49.596;11.070;2024-02-16T03:50:10;98200.41;;;11.01
15360;BMP280;7779;49.596;11.070;2024-02-16T03:52:37;98199.59;;;11.02
15360;BMP280;7779;49.596;11.070;2024-02-16T03:55:03;98208.84;;;11.03
15360;BMP280;7779;49.596;11.070;2024-02-16T03:57:30;98213.97;;;11.05
15360;BMP280;7779;49.596;11.070;2024-02-16T03:59:57;98216.47;;;11.05
15360;BMP280;7779;49.596;11.070;2024-02-16T04:02:22;98213.16;;;11.06
15360;BMP280;7779;49.596;11.070;2024-02-16T04:04:48;98219.75;;;11.04
15360;BMP280;7779;49.596;11.070;2024-02-16T04:07:14;98210.66;;;11.06
15360;BMP280;7779;49.596;11.070;2024-02-16T04:09:40;98208.94;;;11.05
15360;BMP280;7779;49.596;11.070;2024-02-16T04:12:06;98218.88;;;11.03
15360;BMP280;7779;49.596;11.070;2024-02-16T04:14:31;98222.16;;;11.02
15360;BMP280;7779;49.596;11.070;2024-02-16T04:16:59;98226.31;;;11.02
15360;BMP280;7779;49.596;11.070;2024-02-16T04:19:29;98223.66;;;10.99
15360;BMP280;7779;49.596;11.070;2024-02-16T04:21:55;98229.47;;;10.98
15360;BMP280;7779;49.596;11.070;2024-02-16T04:24:21;98226.09;;;10.97
15360;BMP280;7779;49.596;11.070;2024-02-16T04:26:47;98224.44;;;10.98
15360;BMP280;7779;49.596;11.070;2024-02-16T04:29:13;98219.44;;;10.98
15360;BMP280;7779;49.596;11.070;2024-02-16T04:31:40;98214.41;;;10.98
15360;BMP280;7779;49.596;11.070;2024-02-16T04:34:10;98214.56;;;11.01
15360;BMP280;7779;49.596;11.070;2024-02-16T04:36:36;98210.50;;;11.03
15360;BMP280;7779;49.596;11.070;2024-02-16T04:39:02;98212.38;;;11.07
15360;BMP280;7779;49.596;11.070;2024-02-16T04:41:28;98207.50;;;11.10
15360;BMP280;7779;49.596;11.070;2024-02-16T04:43:54;98216.13;;;11.15
15360;BMP280;7779;49.596;11.070;2024-02-16T04:46:19;98216.38;;;11.19
15360;BMP280;7779;49.596;11.070;2024-02-16T04:48:45;98215.84;;;11.25
15360;BMP280;7779;49.596;11.070;2024-02-16T04:51:11;98216.16;;;11.30
15360;BMP280;7779;49.596;11.070;2024-02-16T04:53:37;98217.28;;;11.37
15360;BMP280;7779;49.596;11.070;2024-02-16T04:56:03;98215.88;;;11.42
15360;BMP280;7779;49.596;11.070;2024-02-16T04:58:31;98211.16;;;11.46
15360;BMP280;7779;49.596;11.070;2024-02-16T05:00:57;98208.00;;;11.50
15360;BMP280;7779;49.596;11.070;2024-02-16T05:03:23;98208.31;;;11.56
15360;BMP280;7779;49.596;11.070;2024-02-16T05:05:50;98199.28;;;11.60
15360;BMP280;7779;49.596;11.070;2024-02-16T05:08:17;98192.78;;;11.63
15360;BMP280;7779;49.596;11.070;2024-02-16T05:10:43;98195.38;;;11.65
15360;BMP280;7779;49.596;11.070;2024-02-16T05:13:08;98195.50;;;11.68
15360;BMP280;7779;49.596;11.070;2024-02-16T05:15:34;98206.53;;;11.71
15360;BMP280;7779;49.596;11.070;2024-02-16T05:18:00;98205.06;;;11.74
15360;BMP280;7779;49.596;11.070;2024-02-16T05:20:25;98205.28;;;11.79
15360;BMP280;7779;49.596;11.070;2024-02-16T05:22:51;98209.66;;;11.83
15360;BMP280;7779;49.596;11.070;2024-02-16T05:25:18;98210.44;;;11.82
15360;BMP280;7779;49.596;11.070;2024-02-16T05:27:45;98219.31;;;11.91
15360;BMP280;7779;49.596;11.070;2024-02-16T05:30:12;98223.59;;;11.94
15360;BMP280;7779;49.596;11.070;2024-02-16T05:32:42;98221.25;;;11.97
15360;BMP280;7779;49.596;11.070;2024-02-16T05:35:08;98222.94;;;11.98
15360;BMP280;7779;49.596;11.070;2024-02-16T05:37:39;98217.25;;;12.00
15360;BMP280;7779;49.596;11.070;2024-02-16T05:40:09;98206.47;;;12.03
15360;BMP280;7779;49.596;11.070;2024-02-16T05:42:48;98219.09;;;12.04
15360;BMP280;7779;49.596;11.070;2024-02-16T05:45:14;98214.94;;;12.05
15360;BMP280;7779;49.596;11.070;2024-02-16T05:47:42;98214.16;;;12.06
15360;BMP280;7779;49.596;11.070;2024-02-16T05:50:08;98213.34;;;12.07
15360;BMP280;7779;49.596;11.070;2024-02-16T05:52:34;98216.72;;;12.07
15360;BMP280;7779;49.596;11.070;2024-02-16T05:55:00;98221.81;;;12.08
15360;BMP280;7779;49.596;11.070;2024-02-16T05:57:26;98224.41;;;12.10
15360;BMP280;7779;49.596;11.070;2024-02-16T05:59:52;98221.91;;;12.10
15360;BMP280;7779;49.596;11.070;2024-02-16T06:02:18;98228.59;;;12.09
15360;BMP280;7779;49.596;11.070;2024-02-16T06:04:44;98223.63;;;12.11
15360;BMP280;7779;49.596;11.070;2024-02-16T06:07:09;98223.69;;;12.12
15360;BMP280;7779;49.596;11.070;2024-02-16T06:09:36;98225.41;;;12.13
15360;BMP280;7779;49.596;11.070;2024-02-16T06:12:06;98228.88;;;12.15
15360;BMP280;7779;49.596;11.070;2024-02-16T06:14:33;98238.06;;;12.15
15360;BMP280;7779;49.596;11.070;2024-02-16T06:17:00;98237.22;;;12.14
15360;BMP280;7779;49.596;11.070;2024-02-16T06:19:26;98244.09;;;12.18
15360;BMP280;7779;49.596;11.070;2024-02-16T06:21:54;98254.22;;;12.20
15360;BMP280;7779;49.596;11.070;2024-02-16T06:24:22;98245.78;;;12.19
15360;BMP280;7779;49.596;11.070;2024-02-16T06:26:48;98255.00;;;12.19
15360;BMP280;7779;49.596;11.070;2024-02-16T06:29:14;98246.59;;;12.18
15360;BMP280;7779;49.596;11.070;2024-02-16T06:31:40;98257.41;;;12.17
15360;BMP280;7779;49.596;11.070;2024-02-16T06:34:06;98253.97;;;12.15
15360;BMP280;7779;49.596;11.070;2024-02-16T06:36:31;98258.06;;;12.13
15360;BMP280;7779;49.596;11.070;2024-02-16T06:38:58;98263.09;;;12.13
15360;BMP280;7779;49.596;11.070;2024-02-16T06:41:24;98261.34;;;12.12
15360;BMP280;7779;49.596;11.070;2024-02-16T06:43:49;98261.34;;;12.12
15360;BMP280;7779;49.596;11.070;2024-02-16T06:46:15;98268.03;;;12.12
15360;BMP280;7779;49.596;11.070;2024-02-16T06:48:41;98258.72;;;12.09
15360;BMP280;7779;49.596;11.070;2024-02-16T06:51:06;98265.44;;;12.10
15360;BMP280;7779;49.596;11.070;2024-02-16T06:53:32;98261.22;;;12.09
15360;BMP280;7779;49.596;11.070;2024-02-16T06:55:58;98267.00;;;12.08
15360;BMP280;7779;49.596;11.070;2024-02-16T06:58:24;98266.25;;;12.09
15360;BMP280;7779;49.596;11.070;2024-02-16T07:00:50;98267.09;;;12.10
15360;BMP280;7779;49.596;11.070;2024-02-16T07:03:15;98268.88;;;12.12
15360;BMP280;7779;49.596;11.070;2024-02-16T07:05:41;98273.13;;;12.13
15360;BMP280;7779;49.596;11.070;2024-02-16T07:08:07;98274.06;;;12.15
15360;BMP280;7779;49.596;11.070;2024-02-16T07:10:34;98279.94;;;12.16
15360;BMP280;7779;49.596;11.070;2024-02-16T07:13:00;98283.34;;;12.16
15360;BMP280;7779;49.596;11.070;2024-02-16T07:15:26;98287.72;;;12.20
15360;BMP280;7779;49.596;11.070;2024-02-16T07:17:53;98298.69;;;12.22
15360;BMP280;7779;49.596;11.070;2024-02-16T07:20:19;98280.31;;;12.23
15360;BMP280;7779;49.596;11.070;2024-02-16T07:22:45;98284.56;;;12.24
15360;BMP280;7779;49.596;11.070;2024-02-16T07:25:15;98282.22;;;12.27
15360;BMP280;7779;49.596;11.070;2024-02-16T07:27:41;98283.13;;;12.29
15360;BMP280;7779;49.596;11.070;2024-02-16T07:30:07;98291.59;;;12.31
15360;BMP280;7779;49.596;11.070;2024-02-16T07:32:33;98280.06;;;12.35
15360;BMP280;7779;49.596;11.070;2024-02-16T07:34:59;98281.00;;;12.37
15360;BMP280;7779;49.596;11.070;2024-02-16T07:37:25;98278.69;;;12.41
15360;BMP280;7779;49.596;11.070;2024-02-16T07:39:51;98276.41;;;12.46
15360;BMP280;7779;49.596;11.070;2024-02-16T07:42:16;98285.88;;;12.51
15360;BMP280;7779;49.596;11.070;2024-02-16T07:44:42;98277.84;;;12.58
15360;BMP280;7779;49.596;11.070;2024-02-16T07:47:08;98278.97;;;12.64
15360;BMP280;7779;49.596;11.070;2024-02-16T07:49:37;98284.31;;;12.70
15360;BMP280;7779;49.596;11.070;2024-02-16T07:52:03;98273.81;;;12.79
15360;BMP280;7779;49.596;11.070;2024-02-16T07:54:29;98278.50;;;12.88
15360;BMP280;7779;49.596;11.070;2024-02-16T07:56:55;98278.97;;;12.99
15360;BMP280;7779;49.596;11.070;2024-02-16T07:59:21;98281.97;;;13.09
15360;BMP280;7779;49.596;11.070;2024-02-16T08:01:47;98278.38;;;13.22
15360;BMP280;7779;49.596;11.070;2024-02-16T08:04:13;98280.69;;;13.36
15360;BMP280;7779;49.596;11.070;2024-02-16T08:06:39;98282.19;;;13.50
15360;BMP280;7779;49.596;11.070;2024-02-16T08:09:05;98283.75;;;13.66
15360;BMP280;7779;49.596;11.070;2024-02-16T08:11:31;98287.81;;;13.82
15360;BMP280;7779;49.596;11.070;2024-02-16T08:13:57;98284.31;;;13.99
15360;BMP280;7779;49.596;11.070;2024-02-16T08:16:27;98279.88;;;14.12
15360;BMP280;7779;49.596;11.070;2024-02-16T08:18:53;98288.13;;;14.28
15360;BMP280;7779;49.596;11.070;2024-02-16T08:21:19;98277.00;;;14.44
15360;BMP280;7779;49.596;11.070;2024-02-16T08:23:45;98280.13;;;14.58
15360;BMP280;7779;49.596;11.070;2024-02-16T08:26:10;98279.03;;;14.72
15360;BMP280;7779;49.596;11.070;2024-02-16T08:28:36;98287.03;;;14.84
15360;BMP280;7779;49.596;11.070;2024-02-16T08:31:02;98280.81;;;14.96
15360;BMP280;7779;49.596;11.070;2024-02-16T08:33:27;98286.41;;;15.11
15360;BMP280;7779;49.596;11.070;2024-02-16T08:35:53;98288.66;;;15.24
15360;BMP280;7779;49.596;11.070;2024-02-16T08:38:19;98284.09;;;15.37
15360;BMP280;7779;49.596;11.070;2024-02-16T08:40:44;98283.72;;;15.50
15360;BMP280;7779;49.596;11.070;2024-02-16T08:43:10;98281.59;;;15.61
15360;BMP280;7779;49.596;11.070;2024-02-16T08:45:36;98286.22;;;15.72
15360;BMP280;7779;49.596;11.070;2024-02-16T08:48:02;98274.81;;;15.83
15360;BMP280;7779;49.596;11.070;2024-02-16T08:50:29;98274.41;;;15.94
15360;BMP280;7779;49.596;11.070;2024-02-16T08:52:55;98278.28;;;16.09
15360;BMP280;7779;49.596;11.070;2024-02-16T08:55:21;98274.59;;;16.23
15360;BMP280;7779;49.596;11.070;2024-02-16T08:57:47;98280.09;;;16.37
15360;BMP280;7779;49.596;11.070;2024-02-16T09:00:14;98282.25;;;16.51
15360;BMP280;7779;49.596;11.070;2024-02-16T09:02:40;98285.97;;;16.62
15360;BMP280;7779;49.596;11.070;2024-02-16T09:05:06;98280.41;;;16.72
15360;BMP280;7779;49.596;11.070;2024-02-16T09:07:35;98280.81;;;16.85
15360;BMP280;7779;49.596;11.070;2024-02-16T09:10:01;98276.03;;;16.94
15360;BMP280;7779;49.596;11.070;2024-02-16T09:12:27;98277.16;;;17.03
15360;BMP280;7779;49.596;11.070;2024-02-16T09:14:53;98274.97;;;17.14
15360;BMP280;7779;49.596;11.070;2024-02-16T09:17:18;98273.59;;;17.23
15360;BMP280;7779;49.596;11.070;2024-02-16T09:19:46;98274.75;;;17.34
15360;BMP280;7779;49.596;11.070;2024-02-16T09:22:11;98271.59;;;17.41
15360;BMP280;7779;49.596;11.070;2024-02-16T09:24:37;98273.38;;;17.45
15360;BMP280;7779;49.596;11.070;2024-02-16T09:27:03;98269.19;;;17.45
15360;BMP280;7779;49.596;11.070;2024-02-16T09:29:30;98277.66;;;17.46
15360;BMP280;7779;49.596;11.070;2024-02-16T09:31:56;98278.44;;;17.45
15360;BMP280;7779;49.596;11.070;2024-02-16T09:34:22;98275.13;;;17.46
15360;BMP280;7779;49.596;11.070;2024-02-16T09:36:48;98291.94;;;17.44
15360;BMP280;7779;49.596;11.070;2024-02-16T09:39:13;98285.84;;;17.37
15360;BMP280;7779;49.596;11.070;2024-02-16T09:41:42;98288.41;;;17.39
15360;BMP280;7779;49.596;11.070;2024-02-16T09:44:11;98293.47;;;17.39
15360;BMP280;7779;49.596;11.070;2024-02-16T09:46:37;98298.59;;;17.40
15360;BMP280;7779;49.596;11.070;2024-02-16T09:49:04;98296.06;;;17.40
15360;BMP280;7779;49.596;11.070;2024-02-16T09:51:30;98285.09;;;17.40
15360;BMP280;7779;49.596;11.070;2024-02-16T09:53:56;98299.72;;;17.50
15360;BMP280;7779;49.596;11.070;2024-02-16T09:56:22;98303.25;;;17.55
15360;BMP280;7779;49.596;11.070;2024-02-16T09:58:51;98294.09;;;17.60
15360;BMP280;7779;49.596;11.070;2024-02-16T10:01:23;98302.81;;;17.69
15360;BMP280;7779;49.596;11.070;2024-02-16T10:03:49;98296.09;;;17.71
15360;BMP280;7779;49.596;11.070;2024-02-16T10:06:16;98302.06;;;17.73
15360;BMP280;7779;49.596;11.070;2024-02-16T10:08:56;98304.72;;;17.77
15360;BMP280;7779;49.596;11.070;2024-02-16T10:11:26;98307.34;;;17.80
15360;BMP280;7779;49.596;11.070;2024-02-16T10:14:00;98306.59;;;17.84
15360;BMP280;7779;49.596;11.070;2024-02-16T10:16:27;98297.34;;;17.85
15360;BMP280;7779;49.596;11.070;2024-02-16T10:18:55;98305.22;;;17.95
15360;BMP280;7779;49.596;11.070;2024-02-16T10:21:27;98308.84;;;18.03
15360;BMP280;7779;49.596;11.070;2024-02-16T10:24:12;98309.97;;;18.12
15360;BMP280;7779;49.596;11.070;2024-02-16T10:26:40;98297.47;;;18.20
15360;BMP280;7779;49.596;11.070;2024-02-16T10:29:09;98300.34;;;18.32
15360;BMP280;7779;49.596;11.070;2024-02-16T10:31:37;98301.47;;;18.42
15360;BMP280;7779;49.596;11.070;2024-02-16T10:34:05;98305.13;;;18.53
15360;BMP280;7779;49.596;11.070;2024-02-16T10:36:33;98302.81;;;18.62
15360;BMP280;7779;49.596;11.070;2024-02-16T10:39:00;98307.19;;;18.69
15360;BMP280;7779;49.596;11.070;2024-02-16T10:41:44;98303.94;;;18.75
15360;BMP280;7779;49.596;11.070;2024-02-16T10:44:11;98288.00;;;18.78
15360;BMP280;7779;49.596;11.070;2024-02-16T10:46:37;98307.63;;;18.87
15360;BMP280;7779;49.596;11.070;2024-02-16T10:49:04;98306.91;;;18.91
15360;BMP280;7779;49.596;11.070;2024-02-16T10:51:46;98303.66;;;18.96
15360;BMP280;7779;49.596;11.070;2024-02-16T10:54:17;98309.66;;;19.00
15360;BMP280;7779;49.596;11.070;2024-02-16T10:56:45;98312.28;;;19.03
15360;BMP280;7779;49.596;11.070;2024-02-16T10:59:11;98310.66;;;19.06
15360;BMP280;7779;49.596;11.070;2024-02-16T11:01:38;98304.78;;;19.09
15360;BMP280;7779;49.596;11.070;2024-02-16T11:04:06;98311.69;;;19.13
15360;BMP280;7779;49.596;11.070;2024-02-16T11:06:54;98303.31;;;19.17
15360;BMP280;7779;49.596;11.070;2024-02-16T11:09:35;98302.53;;;19.20
15360;BMP280;7779;49.596;11.070;2024-02-16T11:12:03;98307.69;;;19.23
15360;BMP280;7779;49.596;11.070;2024-02-16T11:14:43;98295.03;;;19.26
15360;BMP280;7779;49.596;11.070;2024-02-16T11:17:15;98306.09;;;19.28
15360;BMP280;7779;49.596;11.070;2024-02-16T11:19:45;98300.19;;;19.29
15360;BMP280;7779;49.596;11.070;2024-02-16T11:22:16;98301.09;;;19.31
15360;BMP280;7779;49.596;11.070;2024-02-16T11:24:49;98285.84;;;19.31
15360;BMP280;7779;49.596;11.070;2024-02-16T11:27:16;98299.44;;;19.33
15360;BMP280;7779;49.596;11.070;2024-02-16T11:29:45;98301.16;;;19.36
15360;BMP280;7779;49.596;11.070;2024-02-16T11:32:12;98294.44;;;19.36
15360;BMP280;7779;49.596;11.070;2024-02-16T11:34:37;98287.69;;;19.38
15360;BMP280;7779;49.596;11.070;2024-02-16T11:37:04;98269.09;;;19.41
15360;BMP280;7779;49.596;11.070;2024-02-16T11:39:30;98276.75;;;19.42
15360;BMP280;7779;49.596;11.070;2024-02-16T11:42:11;98277.66;;;19.44
15360;BMP280;7779;49.596;11.070;2024-02-16T11:44:39;98281.91;;;19.45
15360;BMP280;7779;49.596;11.070;2024-02-16T11:47:07;98281.97;;;19.48
15360;BMP280;7779;49.596;11.070;2024-02-16T11:49:41;98285.38;;;19.50
15360;BMP280;7779;49.596;11.070;2024-02-16T11:52:07;98288.84;;;19.52
15360;BMP280;7779;49.596;11.070;2024-02-16T11:54:33;98287.19;;;19.54
15360;BMP280;7779;49.596;11.070;2024-02-16T11:57:00;98283.81;;;19.55
15360;BMP280;7779;49.596;11.070;2024-02-16T11:59:26;98280.50;;;19.59
15360;BMP280;7779;49.596;11.070;2024-02-16T12:01:57;98287.38;;;19.63
15360;BMP280;7779;49.596;11.070;2024-02-16T12:04:26;98284.00;;;19.64
15360;BMP280;7779;49.596;11.070;2024-02-16T12:06:56;98284.84;;;19.64
15360;BMP280;7779;49.596;11.070;2024-02-16T12:09:22;98284.84;;;19.64
15360;BMP280;7779;49.596;11.070;2024-02-16T12:11:50;98286.47;;;19.61
15360;BMP280;7779;49.596;11.070;2024-02-16T12:14:17;98279.56;;;19.54
15360;BMP280;7779;49.596;11.070;2024-02-16T12:16:50;98285.47;;;19.53
15360;BMP280;7779;49.596;11.070;2024-02-16T12:19:18;98282.84;;;19.49
15360;BMP280;7779;49.596;11.070;2024-02-16T12:21:44;98281.91;;;19.45
15360;BMP280;7779;49.596;11.070;2024-02-16T12:24:10;98281.97;;;19.48
15360;BMP280;7779;49.596;11.070;2024-02-16T12:26:37;98274.25;;;19.44
15360;BMP280;7779;49.596;11.070;2024-02-16T12:29:02;98284.47;;;19.45
15360;BMP280;7779;49.596;11.070;2024-02-16T12:31:30;98269.94;;;19.41
15360;BMP280;7779;49.596;11.070;2024-02-16T12:33:56;98280.06;;;19.38
15360;BMP280;7779;49.596;11.070;2024-02-16T12:36:21;98275.78;;;19.37
15360;BMP280;7779;49.596;11.070;2024-02-16T12:38:49;98278.38;;;19.39
15360;BMP280;7779;49.596;11.070;2024-02-16T12:41:15;98280.94;;;19.40
15360;BMP280;7779;49.596;11.070;2024-02-16T12:43:41;98277.56;;;19.41
15360;BMP280;7779;49.596;11.070;2024-02-16T12:46:07;98281.03;;;19.45
15360;BMP280;7779;49.596;11.070;2024-02-16T12:48:33;98281.16;;;19.49
15360;BMP280;7779;49.596;11.070;2024-02-16T12:50:59;98278.69;;;19.52
15360;BMP280;7779;49.596;11.070;2024-02-16T12:53:25;98284.69;;;19.57
15360;BMP280;7779;49.596;11.070;2024-02-16T12:55:51;98288.13;;;19.59
15360;BMP280;7779;49.596;11.070;2024-02-16T12:58:17;98289.88;;;19.61
15360;BMP280;7779;49.596;11.070;2024-02-16T13:00:42;98286.50;;;19.62
15360;BMP280;7779;49.596;11.070;2024-02-16T13:03:08;98284.00;;;19.64
15360;BMP280;7779;49.596;11.070;2024-02-16T13:05:34;98283.19;;;19.65
15360;BMP280;7779;49.596;11.070;2024-02-16T13:08:01;98277.28;;;19.67
15360;BMP280;7779;49.596;11.070;2024-02-16T13:10:26;98280.69;;;19.68
15360;BMP280;7779;49.596;11.070;2024-02-16T13:12:52;98276.50;;;19.71
15360;BMP280;7779;49.596;11.070;2024-02-16T13:15:18;98279.94;;;19.73
15360;BMP280;7779;49.596;11.070;2024-02-16T13:17:43;98279.16;;;19.76
15360;BMP280;7779;49.596;11.070;2024-02-16T13:20:09;98280.06;;;19.79
15360;BMP280;7779;49.596;11.070;2024-02-16T13:22:36;98284.38;;;19.82
15360;BMP280;7779;49.596;11.070;2024-02-16T13:25:06;98275.94;;;19.83
15360;BMP280;7779;49.596;11.070;2024-02-16T13:27:33;98275.88;;;19.81
15360;BMP280;7779;49.596;11.070;2024-02-16T13:30:00;98274.28;;;19.86
15360;BMP280;7779;49.596;11.070;2024-02-16T13:32:26;98284.50;;;19.88
15360;BMP280;7779;49.596;11.070;2024-02-16T13:34:52;98282.03;;;19.91
15360;BMP280;7779;49.596;11.070;2024-02-16T13:37:18;98288.00;;;19.93
15360;BMP280;7779;49.596;11.070;2024-02-16T13:39:43;98285.44;;;19.93
15360;BMP280;7779;49.596;11.070;2024-02-16T13:42:10;98282.91;;;19.93
15360;BMP280;7779;49.596;11.070;2024-02-16T13:44:36;98284.59;;;19.92
15360;BMP280;7779;49.596;11.070;2024-02-16T13:47:02;98286.28;;;19.93
15360;BMP280;7779;49.596;11.070;2024-02-16T13:49:28;98291.34;;;19.92
15360;BMP280;7779;49.596;11.070;2024-02-16T13:51:54;98289.59;;;19.88
15360;BMP280;7779;49.596;11.070;2024-02-16T13:54:25;98290.25;;;19.81
15360;BMP280;7779;49.596;11.070;2024-02-16T13:56:51;98296.16;;;19.78
15360;BMP280;7779;49.596;11.070;2024-02-16T13:59:16;98293.56;;;19.77
15360;BMP280;7779;49.596;11.070;2024-02-16T14:01:43;98294.44;;;19.77
15360;BMP280;7779;49.596;11.070;2024-02-16T14:04:09;98294.44;;;19.77
15360;BMP280;7779;49.596;11.070;2024-02-16T14:06:34;98286.72;;;19.73